Slowly — DD3083 — position and weather

sailwx.info

Track history (hours):
 
Tides and Currents Weather Stations Pressure Air Temp Water Temp Dewpoint Dewpoint Depression Visibility Wind Speed Wind Dir Waves Ship Positions

Slowly

Last reported at 2017-Nov-30 19:01 UTC. Time now 2018-Jan-19 03:24 UTC.
Position N 26°07' W 080°06'.
Warning: this ship's position is 49 days out of date.

Length 13 m.

Type: Pleasure craft. MMSI: 211625170.

Date/timePositionNaut miles runAvg speedWind from/ knotsBaromVisibWave heightAir tempDewpointWater temp
2017-Nov-30 19:01N 26°07' W 080°06'0 0.2
2017-Nov-30 18:58N 26°07' W 080°06'1 1.4
2017-Nov-30 18:11N 26°09' W 080°06'1 3.1
2017-Nov-30 17:55N 26°09' W 080°06'2 4.9
2017-Nov-30 17:25N 26°12' W 080°06'2 5.6
2017-Nov-30 17:00N 26°14' W 080°06'2 2.1
2017-Nov-30 16:13N 26°16' W 080°05'1 4.1
2017-Nov-30 16:00N 26°16' W 080°05'4 0.2
2017-Nov-29 22:08N 26°21' W 080°04'0 0.0
2017-Nov-29 21:53N 26°21' W 080°04'0 0.0
2017-Nov-29 21:14N 26°21' W 080°04'1 2.1
2017-Nov-29 20:55N 26°21' W 080°05'11 4.1
2017-Nov-29 18:17N 26°32' W 080°03'1 3.2
2017-Nov-29 17:59N 26°33' W 080°03'2 4.6
2017-Nov-29 17:30N 26°35' W 080°03'2 3.4
2017-Nov-29 17:00N 26°37' W 080°03'3 5.2
2017-Nov-29 16:31N 26°40' W 080°03'1 2.6
2017-Nov-29 16:00N 26°41' W 080°03'2 3.3
2017-Nov-29 15:30N 26°43' W 080°03'1 2.6
2017-Nov-29 15:01N 26°44' W 080°03'2 0.1
2017-Nov-28 22:03N 26°46' W 080°03'0 0.0
2017-Nov-28 21:59N 26°46' W 080°03'8 4.2
2017-Nov-28 19:59N 26°54' W 080°02'3 6.9
2017-Nov-28 19:30N 26°57' W 080°03'  
Track history (hours):
 
Tides and Currents Weather Stations Pressure Air Temp Water Temp Dewpoint Dewpoint Depression Visibility Wind Speed Wind Dir Waves Ship Positions

Slowly

Last reported at 2017-Nov-30 19:01 UTC. Time now 2018-Jan-19 03:24 UTC.
Position N 26°07' W 080°06'.
Warning: this ship's position is 49 days out of date.

Length 13 m.

Type: Pleasure craft. MMSI: 211625170.

Date/timePositionNaut miles runAvg speedWind from/ knotsBaromVisibWave heightAir tempDewpointWater temp
2017-Nov-30 19:01N 26°07' W 080°06'0 0.2
2017-Nov-30 18:58N 26°07' W 080°06'1 1.4
2017-Nov-30 18:11N 26°09' W 080°06'1 3.1
2017-Nov-30 17:55N 26°09' W 080°06'2 4.9
2017-Nov-30 17:25N 26°12' W 080°06'2 5.6
2017-Nov-30 17:00N 26°14' W 080°06'2 2.1
2017-Nov-30 16:13N 26°16' W 080°05'1 4.1
2017-Nov-30 16:00N 26°16' W 080°05'4 0.2
2017-Nov-29 22:08N 26°21' W 080°04'0 0.0
2017-Nov-29 21:53N 26°21' W 080°04'0 0.0
2017-Nov-29 21:14N 26°21' W 080°04'1 2.1
2017-Nov-29 20:55N 26°21' W 080°05'11 4.1
2017-Nov-29 18:17N 26°32' W 080°03'1 3.2
2017-Nov-29 17:59N 26°33' W 080°03'2 4.6
2017-Nov-29 17:30N 26°35' W 080°03'2 3.4
2017-Nov-29 17:00N 26°37' W 080°03'3 5.2
2017-Nov-29 16:31N 26°40' W 080°03'1 2.6
2017-Nov-29 16:00N 26°41' W 080°03'2 3.3
2017-Nov-29 15:30N 26°43' W 080°03'1 2.6
2017-Nov-29 15:01N 26°44' W 080°03'2 0.1
2017-Nov-28 22:03N 26°46' W 080°03'0 0.0
2017-Nov-28 21:59N 26°46' W 080°03'8 4.2
2017-Nov-28 19:59N 26°54' W 080°02'3 6.9
2017-Nov-28 19:30N 26°57' W 080°03'  

Dump ship's entire track history